首页
METAR-TAF:

METAR-TAF

机场 :

Wawa, 安大略省, 加拿大

纬度: 47-58N, 经度: 084-47W, 海拔: 287米

当前天气观测

该预报发布于35分钟前的19:00 UTC
风速5节,风向西,在南转西南北转西北之间变化
温度 -13°C
湿度 51%
气压 1028 hPa
能見度: 24.1公里
少量云层高于3300英尺

METAR: CYXZ 191900Z 28005KT 210V330 15SM FEW033 M13/M21 A3035 RMK SC2 SF ASOCTD SLP307

时间: 14:35 (19:35 UTC)

预报

该预报发布于6小时和57分钟前的12:38 UTC
预报有效从19日的 13点(UTC)到 19日的 24点(UTC)
风速3节,风向多变
能見度: 10公里
少量云层高于3000英尺
短暂存在
从 19日的 13点(UTC)到 19日的 24点(UTC)
多云层高于3000英尺
成为
从 19日的 14点(UTC)到 19日的 16点(UTC)
风速6节,风向西北

TAF: CYXZ 191238Z 1913/1924 VRB03KT P6SM FEW030 TEMPO 1913/1924 BKN030 BECMG 1914/1916 31006KT RMK NXT FCST BY 192000Z

超过4000个机场的气象观测和天气预报(METAR&TAF报告)。

可查询的气象台以黄色和红色小点在地图上表示。

将鼠标移到小点上方,可查看气象台名称。

然后点击查看天气观测和预报。

如需切换地图:点击带黑十字的绿色按钮放大地图;点击带横线的绿色按钮缩小地图;或者点击绿色箭头查看邻近地区的地图。


METAR-TAF: